createdAt,value
2018-03-27T00:00:09.192Z,11.27
2018-03-27T00:02:37.441Z,8.63
2018-03-27T00:05:06.476Z,9.60
2018-03-27T00:07:34.752Z,11.30
2018-03-27T00:10:03.022Z,10.80
2018-03-27T00:12:31.275Z,13.50
2018-03-27T00:14:59.532Z,11.10
2018-03-27T00:17:28.546Z,9.87
2018-03-27T00:19:56.802Z,7.53
2018-03-27T00:22:25.818Z,8.53
2018-03-27T00:24:54.069Z,14.13
2018-03-27T00:27:34.845Z,9.17
2018-03-27T00:30:16.207Z,11.50
2018-03-27T00:32:57.166Z,7.93
2018-03-27T00:35:37.720Z,12.80
2018-03-27T00:38:18.033Z,14.23
2018-03-27T00:40:46.775Z,14.30
2018-03-27T00:43:15.040Z,13.77
2018-03-27T00:45:43.305Z,14.13
2018-03-27T00:48:11.564Z,9.07
2018-03-27T00:50:39.807Z,9.37
2018-03-27T00:53:08.842Z,10.63
2018-03-27T00:55:37.104Z,13.77
2018-03-27T00:58:05.358Z,13.17
2018-03-27T01:00:34.379Z,12.97
2018-03-27T01:03:02.639Z,9.97
2018-03-27T01:05:30.890Z,10.70
2018-03-27T01:07:59.141Z,7.07
2018-03-27T01:10:28.920Z,11.50
2018-03-27T01:12:57.195Z,10.23
2018-03-27T01:15:25.458Z,11.93
2018-03-27T01:17:54.449Z,12.17
2018-03-27T01:20:22.719Z,10.10
2018-03-27T01:22:51.758Z,11.07
2018-03-27T01:25:20.006Z,9.20
2018-03-27T01:27:48.250Z,14.10
2018-03-27T01:30:17.272Z,12.33
2018-03-27T01:32:45.521Z,13.37
2018-03-27T01:35:14.546Z,13.27
2018-03-27T01:37:42.825Z,10.00
2018-03-27T01:40:11.081Z,10.93
2018-03-27T01:42:39.363Z,10.80
2018-03-27T01:45:07.637Z,11.77
2018-03-27T01:47:36.055Z,20.63
2018-03-27T01:50:04.307Z,13.53
2018-03-27T01:52:32.573Z,11.13
2018-03-27T01:55:00.831Z,13.97
2018-03-27T01:57:29.855Z,9.27
2018-03-27T01:59:58.110Z,11.00
2018-03-27T02:02:26.365Z,12.07
2018-03-27T02:04:55.403Z,16.90
2018-03-27T02:07:23.662Z,10.10
2018-03-27T02:09:51.934Z,12.93
2018-03-27T02:12:25.828Z,8.83
2018-03-27T02:15:00.839Z,5.40
2018-03-27T02:17:34.801Z,7.33
2018-03-27T02:20:09.067Z,9.87
2018-03-27T02:22:39.947Z,10.27
2018-03-27T02:25:08.201Z,15.90
2018-03-27T02:27:37.237Z,13.50
2018-03-27T02:30:05.491Z,10.20
2018-03-27T02:32:33.752Z,12.20
2018-03-27T02:35:02.789Z,6.10
2018-03-27T02:37:31.046Z,10.97
2018-03-27T02:39:59.306Z,13.13
2018-03-27T02:42:27.642Z,12.53
2018-03-27T02:44:55.911Z,13.77
2018-03-27T02:47:24.172Z,14.77
2018-03-27T02:49:52.428Z,14.53
2018-03-27T02:52:20.691Z,13.07
2018-03-27T02:54:48.984Z,11.70
2018-03-27T02:57:17.233Z,8.90
2018-03-27T02:59:46.251Z,11.13
2018-03-27T03:02:14.527Z,12.63
2018-03-27T03:04:42.792Z,8.37
2018-03-27T03:07:11.055Z,10.90
2018-03-27T03:09:40.074Z,9.60
2018-03-27T03:12:08.347Z,14.30
2018-03-27T03:14:36.599Z,13.67
2018-03-27T03:17:05.614Z,18.17
2018-03-27T03:19:33.872Z,11.00
2018-03-27T03:22:02.136Z,9.73
2018-03-27T03:24:31.186Z,13.83
2018-03-27T03:26:59.446Z,11.47
2018-03-27T03:29:27.718Z,15.37
2018-03-27T03:31:55.963Z,9.83
2018-03-27T03:34:25.004Z,9.40
2018-03-27T03:36:53.260Z,12.97
2018-03-27T03:39:21.510Z,11.00
2018-03-27T03:41:50.527Z,9.47
2018-03-27T03:44:18.782Z,14.80
2018-03-27T03:46:47.040Z,17.63
2018-03-27T03:49:15.312Z,13.80
2018-03-27T03:51:43.573Z,10.43
2018-03-27T03:54:11.829Z,9.80
2018-03-27T03:56:40.072Z,14.67
2018-03-27T03:59:08.337Z,18.13
2018-03-27T04:01:37.395Z,13.93
2018-03-27T04:04:05.656Z,9.90
2018-03-27T04:06:33.912Z,8.03
2018-03-27T04:09:03.158Z,11.90
2018-03-27T04:11:32.231Z,14.83
2018-03-27T04:14:00.482Z,8.67
2018-03-27T04:16:28.751Z,10.97
2018-03-27T04:18:57.008Z,2.73
2018-03-27T04:21:25.268Z,12.10
2018-03-27T04:23:54.280Z,13.00
2018-03-27T04:26:22.535Z,8.17
2018-03-27T04:28:51.624Z,12.90
2018-03-27T04:31:20.655Z,10.03
2018-03-27T04:33:48.947Z,12.70
2018-03-27T04:36:17.199Z,14.50
2018-03-27T04:38:45.465Z,15.80
2018-03-27T04:41:14.475Z,13.70
2018-03-27T04:43:42.730Z,15.73
2018-03-27T04:46:11.757Z,12.37
2018-03-27T04:48:40.027Z,13.80
2018-03-27T04:51:08.286Z,12.27
2018-03-27T04:53:36.549Z,7.97
2018-03-27T04:56:05.572Z,10.03
2018-03-27T04:58:33.848Z,16.93
2018-03-27T05:01:02.121Z,21.20
2018-03-27T05:03:30.414Z,10.30
2018-03-27T05:05:58.665Z,16.43
2018-03-27T05:08:26.978Z,12.03
2018-03-27T05:10:55.333Z,15.70
2018-03-27T05:13:23.673Z,11.97
2018-03-27T05:15:51.928Z,8.80
2018-03-27T05:18:20.181Z,3.37
2018-03-27T05:20:48.451Z,9.27
2018-03-27T05:23:16.719Z,12.37
2018-03-27T05:25:45.016Z,8.00
2018-03-27T05:28:13.275Z,18.83
2018-03-27T05:30:41.568Z,11.93
2018-03-27T05:33:09.827Z,16.73
2018-03-27T05:35:38.104Z,13.23
2018-03-27T05:38:06.368Z,11.37
2018-03-27T05:40:34.633Z,16.07
2018-03-27T05:43:02.896Z,14.00
2018-03-27T05:45:31.168Z,14.87
2018-03-27T05:48:00.191Z,19.00
2018-03-27T05:50:28.511Z,15.77
2018-03-27T05:52:56.786Z,23.50
2018-03-27T05:55:25.819Z,13.40
2018-03-27T05:57:54.842Z,21.63
2018-03-27T06:00:23.112Z,20.70
2018-03-27T06:02:51.370Z,17.60
2018-03-27T06:05:19.644Z,21.33
2018-03-27T06:07:48.689Z,16.53
2018-03-27T06:10:16.951Z,19.67
2018-03-27T06:12:45.251Z,15.53
2018-03-27T06:15:13.521Z,17.27
2018-03-27T06:17:41.798Z,13.87
2018-03-27T06:20:11.591Z,8.77
2018-03-27T06:22:39.850Z,10.17
2018-03-27T06:25:08.123Z,12.80
2018-03-27T06:27:36.422Z,14.30
2018-03-27T06:30:04.661Z,14.30
2018-03-27T06:32:32.944Z,14.00
2018-03-27T06:35:01.206Z,11.40
2018-03-27T06:37:29.483Z,12.43
2018-03-27T06:39:58.501Z,13.07
2018-03-27T06:42:26.824Z,7.90
2018-03-27T06:44:55.090Z,14.70
2018-03-27T06:47:23.352Z,15.03
2018-03-27T06:49:51.611Z,17.43
2018-03-27T06:52:19.886Z,9.67
2018-03-27T06:54:48.144Z,14.43
2018-03-27T06:57:16.408Z,15.33
2018-03-27T06:59:45.444Z,20.67
2018-03-27T07:02:13.707Z,14.80
2018-03-27T07:04:42.001Z,13.43
2018-03-27T07:07:10.326Z,14.87
2018-03-27T07:09:39.384Z,17.03
2018-03-27T07:12:07.640Z,6.63
2018-03-27T07:14:35.879Z,11.10
2018-03-27T07:17:04.140Z,13.53
2018-03-27T07:19:33.178Z,6.87
2018-03-27T07:22:01.441Z,14.13
2018-03-27T07:24:29.713Z,18.20
2018-03-27T07:26:58.065Z,17.40
2018-03-27T07:29:26.262Z,17.13
2018-03-27T07:31:54.528Z,11.77
2018-03-27T07:34:23.551Z,12.40
2018-03-27T07:36:52.569Z,6.57
2018-03-27T07:39:20.822Z,12.47
2018-03-27T07:41:49.096Z,16.10
2018-03-27T07:44:17.360Z,15.10
2018-03-27T07:46:45.663Z,14.10
2018-03-27T07:49:13.939Z,14.47
2018-03-27T07:51:42.211Z,10.80
2018-03-27T07:54:10.697Z,13.23
2018-03-27T07:56:39.075Z,17.17
2018-03-27T07:59:07.326Z,17.47
2018-03-27T08:01:35.605Z,21.00
2018-03-27T08:04:03.870Z,19.80
2018-03-27T08:06:32.134Z,20.80
2018-03-27T08:09:01.160Z,22.20
2018-03-27T08:11:29.470Z,46.87
2018-03-27T08:13:57.750Z,33.43
2018-03-27T08:16:26.103Z,31.87
2018-03-27T08:18:54.364Z,37.07
2018-03-27T08:21:22.640Z,43.70
2018-03-27T08:23:50.896Z,45.80
2018-03-27T08:26:19.182Z,39.00
2018-03-27T08:28:47.489Z,34.47
2018-03-27T08:31:15.760Z,38.13
2018-03-27T08:33:44.109Z,34.90
2018-03-27T08:36:12.547Z,38.20
2018-03-27T08:38:40.774Z,46.20
2018-03-27T08:41:09.043Z,38.77
2018-03-27T08:43:37.304Z,17.63
2018-03-27T08:46:05.596Z,37.57
2018-03-27T08:48:34.703Z,46.07
2018-03-27T08:51:03.096Z,42.70
2018-03-27T08:53:31.578Z,40.13
2018-03-27T08:55:59.847Z,43.73
2018-03-27T08:58:28.185Z,44.67
2018-03-27T09:00:56.476Z,49.60
2018-03-27T09:03:25.554Z,43.57
2018-03-27T09:05:54.588Z,43.00
2018-03-27T09:08:22.859Z,44.37
2018-03-27T09:10:51.165Z,47.97
2018-03-27T09:13:20.196Z,41.40
2018-03-27T09:15:49.253Z,40.23
2018-03-27T09:18:17.524Z,52.50
2018-03-27T09:20:45.885Z,40.27
2018-03-27T09:23:14.148Z,38.50
2018-03-27T09:25:42.428Z,35.43
2018-03-27T09:28:10.693Z,38.80
2018-03-27T09:30:39.100Z,38.83
2018-03-27T09:33:07.376Z,39.93
2018-03-27T09:35:36.578Z,43.40
2018-03-27T09:38:06.029Z,30.50
2018-03-27T09:40:34.316Z,20.40
2018-03-27T09:43:03.488Z,29.87
2018-03-27T09:45:32.788Z,28.93
2018-03-27T09:48:01.835Z,22.80
2018-03-27T09:50:30.104Z,15.37
2018-03-27T09:52:58.387Z,16.17
2018-03-27T09:55:26.676Z,25.27
2018-03-27T09:57:55.197Z,21.00
2018-03-27T10:00:30.085Z,20.30
2018-03-27T10:02:58.484Z,16.90
2018-03-27T10:05:26.851Z,24.93
2018-03-27T10:07:55.216Z,16.50
2018-03-27T10:10:23.505Z,12.60
2018-03-27T10:12:51.774Z,7.90
2018-03-27T10:15:20.121Z,11.60
2018-03-27T10:17:48.448Z,14.93
2018-03-27T10:20:16.728Z,15.13
2018-03-27T10:22:45.006Z,17.00
2018-03-27T10:25:13.267Z,16.60
2018-03-27T10:27:41.632Z,16.30
2018-03-27T10:30:09.898Z,17.00
2018-03-27T10:32:38.169Z,25.50
2018-03-27T10:35:06.456Z,19.40
2018-03-27T10:37:34.940Z,17.60
2018-03-27T10:40:03.214Z,22.60
2018-03-27T10:42:31.528Z,29.27
2018-03-27T10:45:00.568Z,17.53
2018-03-27T10:47:28.879Z,19.57
2018-03-27T10:49:57.191Z,19.30
2018-03-27T10:52:25.531Z,16.17
2018-03-27T10:54:53.998Z,20.63
2018-03-27T10:57:22.370Z,23.50
2018-03-27T10:59:50.667Z,23.20
2018-03-27T11:02:18.942Z,24.07
2018-03-27T11:04:47.223Z,19.53
2018-03-27T11:07:15.526Z,25.10
2018-03-27T11:09:44.564Z,20.77
2018-03-27T11:12:13.664Z,42.00
2018-03-27T11:14:41.953Z,20.37
2018-03-27T11:17:10.843Z,29.33
2018-03-27T11:19:40.041Z,31.07
2018-03-27T11:22:08.325Z,17.63
2018-03-27T11:24:36.616Z,24.73
2018-03-27T11:27:04.873Z,22.63
2018-03-27T11:29:33.179Z,18.80
2018-03-27T11:32:01.445Z,22.60
2018-03-27T11:34:29.780Z,28.53
2018-03-27T11:36:58.829Z,19.43
2018-03-27T11:39:27.995Z,18.73
2018-03-27T11:41:56.294Z,19.90
2018-03-27T11:44:24.568Z,12.03
2018-03-27T11:46:52.855Z,15.23
2018-03-27T11:49:21.926Z,17.50
2018-03-27T11:51:50.209Z,13.60
2018-03-27T11:54:19.996Z,14.63
2018-03-27T11:56:48.270Z,19.37
2018-03-27T11:59:16.532Z,20.20
2018-03-27T12:01:44.806Z,21.00
2018-03-27T12:04:13.249Z,21.60
2018-03-27T12:06:42.372Z,26.30
2018-03-27T12:09:10.650Z,19.23
2018-03-27T12:11:38.929Z,13.80
2018-03-27T12:14:07.186Z,19.03
2018-03-27T12:16:35.608Z,19.67
2018-03-27T12:19:03.917Z,21.90
2018-03-27T12:21:32.215Z,22.47
2018-03-27T12:24:00.515Z,19.43
2018-03-27T12:26:28.825Z,24.73
2018-03-27T12:28:58.164Z,16.17
2018-03-27T12:31:27.213Z,33.33
2018-03-27T12:33:55.481Z,32.73
2018-03-27T12:36:23.893Z,28.30
2018-03-27T12:38:53.161Z,26.80
2018-03-27T12:41:21.578Z,23.80
2018-03-27T12:43:50.615Z,18.40
2018-03-27T12:46:18.916Z,39.37
2018-03-27T12:48:47.224Z,32.30
2018-03-27T12:51:15.553Z,27.80
2018-03-27T12:53:43.837Z,26.83
2018-03-27T12:56:12.144Z,40.47
2018-03-27T12:58:40.456Z,30.23
2018-03-27T13:01:08.763Z,48.43
2018-03-27T13:03:37.057Z,20.20
2018-03-27T13:06:05.382Z,35.53
2018-03-27T13:08:33.713Z,30.90
2018-03-27T13:11:02.083Z,27.73
2018-03-27T13:13:30.419Z,37.37
2018-03-27T13:15:59.446Z,31.87
2018-03-27T13:18:27.728Z,33.00
2018-03-27T13:20:56.108Z,39.37
2018-03-27T13:23:24.416Z,40.90
2018-03-27T13:25:53.504Z,33.07
2018-03-27T13:28:21.963Z,33.80
2018-03-27T13:30:50.229Z,33.60
2018-03-27T13:33:18.509Z,28.73
2018-03-27T13:35:46.773Z,33.13
2018-03-27T13:38:15.085Z,45.73
2018-03-27T13:40:43.428Z,33.63
2018-03-27T13:43:11.784Z,41.63
2018-03-27T13:45:40.099Z,15.60
2018-03-27T13:48:08.382Z,30.03
2018-03-27T13:50:36.713Z,22.17
2018-03-27T13:53:04.932Z,27.57
2018-03-27T13:55:33.202Z,35.37
2018-03-27T13:58:01.495Z,24.50
2018-03-27T14:00:29.823Z,31.27
2018-03-27T14:02:58.112Z,30.23
2018-03-27T14:05:26.371Z,18.77
2018-03-27T14:07:54.733Z,21.77
2018-03-27T14:10:23.809Z,23.10
2018-03-27T14:12:52.242Z,21.33
2018-03-27T14:15:21.158Z,22.17
2018-03-27T14:17:49.440Z,24.80
2018-03-27T14:20:17.815Z,25.03
2018-03-27T14:22:46.089Z,22.93
2018-03-27T14:25:14.977Z,22.47
2018-03-27T14:27:43.273Z,23.40
2018-03-27T14:30:11.570Z,22.93
2018-03-27T14:32:40.637Z,32.40
2018-03-27T14:35:08.980Z,18.70
2018-03-27T14:37:37.255Z,29.57
2018-03-27T14:40:05.528Z,18.40
2018-03-27T14:42:33.830Z,17.13
2018-03-27T14:45:02.115Z,27.93
2018-03-27T14:47:30.485Z,24.43
2018-03-27T14:49:58.766Z,19.33
2018-03-27T14:52:27.051Z,23.30
2018-03-27T14:54:55.418Z,30.83
2018-03-27T14:57:23.680Z,22.97
2018-03-27T14:59:52.612Z,39.77
2018-03-27T15:02:21.396Z,22.53
2018-03-27T15:04:49.775Z,28.97
2018-03-27T15:07:18.077Z,34.80
2018-03-27T15:09:47.114Z,41.90
2018-03-27T15:12:15.473Z,41.10
2018-03-27T15:14:43.724Z,36.00
2018-03-27T15:17:12.872Z,35.00
2018-03-27T15:19:41.170Z,42.00
2018-03-27T15:22:10.263Z,28.57
2018-03-27T15:24:38.536Z,47.60
2018-03-27T15:27:06.810Z,36.03
2018-03-27T15:29:35.069Z,24.07
2018-03-27T15:32:03.350Z,45.10
2018-03-27T15:34:31.611Z,23.47
2018-03-27T15:37:00.007Z,28.53
2018-03-27T15:39:28.296Z,35.03
2018-03-27T15:41:56.580Z,30.43
2018-03-27T15:44:24.858Z,42.80
2018-03-27T15:46:53.169Z,15.33
2018-03-27T15:49:21.452Z,44.60
2018-03-27T15:51:49.706Z,43.13
2018-03-27T15:54:18.760Z,33.90
2018-03-27T15:56:47.093Z,40.00
2018-03-27T15:59:15.362Z,44.93
2018-03-27T16:01:44.458Z,51.30
2018-03-27T16:04:13.515Z,36.40
2018-03-27T16:06:41.777Z,42.13
2018-03-27T16:09:10.086Z,33.30
2018-03-27T16:11:38.396Z,39.67
2018-03-27T16:14:06.672Z,28.33
2018-03-27T16:16:34.983Z,44.80
2018-03-27T16:19:03.398Z,39.93
2018-03-27T16:21:32.459Z,36.33
2018-03-27T16:24:00.770Z,52.27
2018-03-27T16:26:29.069Z,45.70
2018-03-27T16:28:58.155Z,31.27
2018-03-27T16:31:27.251Z,55.30
2018-03-27T16:33:56.319Z,46.23
2018-03-27T16:36:24.606Z,28.07
2018-03-27T16:38:54.837Z,22.67
2018-03-27T16:41:23.907Z,51.10
2018-03-27T16:43:52.211Z,48.77
2018-03-27T16:46:21.247Z,53.73
2018-03-27T16:48:49.676Z,54.40
2018-03-27T16:51:17.935Z,49.83
2018-03-27T16:53:46.202Z,58.33
2018-03-27T16:56:14.462Z,65.00
2018-03-27T16:58:42.745Z,78.97
2018-03-27T17:01:11.037Z,62.97
2018-03-27T17:03:39.360Z,63.60
2018-03-27T17:06:07.635Z,49.07
2018-03-27T17:08:35.911Z,76.87
2018-03-27T17:11:04.244Z,75.63
2018-03-27T17:13:32.500Z,72.50
2018-03-27T17:16:00.936Z,76.57
2018-03-27T17:18:30.044Z,76.73
2018-03-27T17:20:58.377Z,64.73
2018-03-27T17:23:26.692Z,70.77
2018-03-27T17:25:55.097Z,72.53
2018-03-27T17:28:23.360Z,71.23
2018-03-27T17:30:51.724Z,81.70
2018-03-27T17:33:20.752Z,59.57
2018-03-27T17:35:49.033Z,70.13
2018-03-27T17:38:17.440Z,65.40
2018-03-27T17:40:45.698Z,73.63
2018-03-27T17:43:13.976Z,74.07
2018-03-27T17:45:42.258Z,69.60
2018-03-27T17:48:10.549Z,70.40
2018-03-27T17:50:38.818Z,84.83
2018-03-27T17:53:07.130Z,82.43
2018-03-27T17:55:35.405Z,75.33
2018-03-27T17:58:04.435Z,82.00
2018-03-27T18:00:33.134Z,89.77
2018-03-27T18:03:01.401Z,74.10
2018-03-27T18:05:29.745Z,80.33
2018-03-27T18:07:58.025Z,91.33
2018-03-27T18:10:26.299Z,93.03
2018-03-27T18:12:54.578Z,72.60
2018-03-27T18:15:22.885Z,76.43
2018-03-27T18:17:51.154Z,86.07
2018-03-27T18:20:19.423Z,95.37
2018-03-27T18:22:47.708Z,82.70
2018-03-27T18:25:15.967Z,95.40
2018-03-27T18:27:45.114Z,114.17
2018-03-27T18:30:14.993Z,95.17
2018-03-27T18:32:43.379Z,105.23
2018-03-27T18:35:12.423Z,93.63
2018-03-27T18:37:41.452Z,82.67
2018-03-27T18:40:09.732Z,86.00
2018-03-27T18:42:38.019Z,92.87
2018-03-27T18:45:06.288Z,96.63
2018-03-27T18:47:34.558Z,97.80
2018-03-27T18:50:02.836Z,92.70
2018-03-27T18:52:31.125Z,91.83
2018-03-27T18:54:59.388Z,96.33
2018-03-27T18:57:27.695Z,105.67
2018-03-27T18:59:55.958Z,81.43
2018-03-27T19:02:24.222Z,109.73
2018-03-27T19:04:52.499Z,95.87
2018-03-27T19:07:20.793Z,117.13
2018-03-27T19:09:49.080Z,104.43
2018-03-27T19:12:17.358Z,106.07
2018-03-27T19:14:45.630Z,118.57
2018-03-27T19:17:13.900Z,109.77
2018-03-27T19:19:42.183Z,101.83
2018-03-27T19:22:10.474Z,86.97
2018-03-27T19:24:39.525Z,92.37
2018-03-27T19:27:07.782Z,87.67
2018-03-27T19:29:36.057Z,61.77
2018-03-27T19:32:04.354Z,103.50
2018-03-27T19:34:32.627Z,74.97
2018-03-27T19:37:00.889Z,92.20
2018-03-27T19:39:29.214Z,90.67
2018-03-27T19:41:57.485Z,54.80
2018-03-27T19:44:25.752Z,44.20
2018-03-27T19:46:54.020Z,47.57
2018-03-27T19:49:22.282Z,31.90
2018-03-27T19:51:50.551Z,56.27
2018-03-27T19:54:18.854Z,39.90
2018-03-27T19:56:47.119Z,35.50
2018-03-27T19:59:15.378Z,46.37
2018-03-27T20:01:43.646Z,51.00
2018-03-27T20:04:11.913Z,85.97
2018-03-27T20:06:40.179Z,62.10
2018-03-27T20:09:09.204Z,46.90
2018-03-27T20:11:37.474Z,55.80
2018-03-27T20:14:05.763Z,66.47
2018-03-27T20:16:34.038Z,51.67
2018-03-27T20:19:02.291Z,66.23
2018-03-27T20:21:30.564Z,38.27
2018-03-27T20:23:59.595Z,48.70
2018-03-27T20:26:27.890Z,39.87
2018-03-27T20:28:56.156Z,58.20
2018-03-27T20:31:24.414Z,58.87
2018-03-27T20:33:52.733Z,80.67
2018-03-27T20:36:21.003Z,47.63
2018-03-27T20:38:49.273Z,77.13
2018-03-27T20:41:18.313Z,53.17
2018-03-27T20:43:46.631Z,40.30
2018-03-27T20:46:14.888Z,44.33
2018-03-27T20:48:43.184Z,79.03
2018-03-27T20:51:11.465Z,66.23
2018-03-27T20:53:39.734Z,60.00
2018-03-27T20:56:08.120Z,35.00
2018-03-27T20:58:36.386Z,40.60
2018-03-27T21:01:04.663Z,53.43
2018-03-27T21:03:32.941Z,56.77
2018-03-27T21:06:01.195Z,38.80
2018-03-27T21:08:29.473Z,75.27
2018-03-27T21:10:57.735Z,55.00
2018-03-27T21:13:26.007Z,35.20
2018-03-27T21:15:54.284Z,82.70
2018-03-27T21:18:22.612Z,38.13
2018-03-27T21:20:50.874Z,59.30
2018-03-27T21:23:19.270Z,43.27
2018-03-27T21:25:48.299Z,69.20
2018-03-27T21:28:17.337Z,88.83
2018-03-27T21:30:45.609Z,71.87
2018-03-27T21:33:13.867Z,63.77
2018-03-27T21:35:42.121Z,74.33
2018-03-27T21:38:10.393Z,45.13
2018-03-27T21:40:39.408Z,59.70
2018-03-27T21:43:07.665Z,75.20
2018-03-27T21:45:36.688Z,78.60
2018-03-27T21:48:04.986Z,63.37
2018-03-27T21:50:33.237Z,81.07
2018-03-27T21:53:01.539Z,51.33
2018-03-27T21:55:29.798Z,102.47
2018-03-27T21:57:58.084Z,47.33
2018-03-27T22:00:26.358Z,104.83
2018-03-27T22:02:54.632Z,75.60
2018-03-27T22:05:22.912Z,56.47
2018-03-27T22:07:51.332Z,46.63
2018-03-27T22:10:20.628Z,84.90
2018-03-27T22:12:48.891Z,71.20
2018-03-27T22:15:17.956Z,44.33
2018-03-27T22:17:46.217Z,39.43
2018-03-27T22:20:14.489Z,51.47
2018-03-27T22:22:42.761Z,48.97
2018-03-27T22:25:15.209Z,22.80
2018-03-27T22:27:43.701Z,29.97
2018-03-27T22:30:12.747Z,37.33
2018-03-27T22:32:41.029Z,32.27
2018-03-27T22:35:09.305Z,62.67
2018-03-27T22:37:37.569Z,54.40
2018-03-27T22:40:05.849Z,62.07
2018-03-27T22:42:34.138Z,41.50
2018-03-27T22:45:02.402Z,75.87
2018-03-27T22:47:30.676Z,23.30
2018-03-27T22:49:58.948Z,59.33
2018-03-27T22:52:27.229Z,70.33
2018-03-27T22:54:55.503Z,51.33
2018-03-27T22:57:23.774Z,82.37
2018-03-27T22:59:52.042Z,81.50
2018-03-27T23:02:20.778Z,67.93
2018-03-27T23:04:49.049Z,66.07
2018-03-27T23:07:17.415Z,85.27
2018-03-27T23:09:45.745Z,83.03
2018-03-27T23:12:14.015Z,66.30
2018-03-27T23:14:42.280Z,68.23
2018-03-27T23:17:11.357Z,65.57
2018-03-27T23:19:40.855Z,74.27
2018-03-27T23:22:09.138Z,67.90
2018-03-27T23:24:37.400Z,47.33
2018-03-27T23:27:06.236Z,49.07
2018-03-27T23:29:35.382Z,42.20
2018-03-27T23:32:03.638Z,69.17
2018-03-27T23:34:32.005Z,69.07
2018-03-27T23:37:00.471Z,57.33
2018-03-27T23:39:28.745Z,48.50
2018-03-27T23:41:57.062Z,97.73
2018-03-27T23:44:26.104Z,74.83
2018-03-27T23:46:54.375Z,82.37
2018-03-27T23:49:23.406Z,93.50
2018-03-27T23:51:51.855Z,79.67
2018-03-27T23:54:20.214Z,84.23
2018-03-27T23:56:49.374Z,84.53
2018-03-27T23:59:17.767Z,86.73
